To NAV CANADA Home Page Login to a new session Search on AWWS site Feedback and Comments Disclaimer Vers la page française équivalente Tips FAQ What's new on the site To the Forecasts and Observations / NOTAM section To "File a Flight Plan" website Publications and other links Update of the User's profile FIC Telephone Numbers My Weather Data Folder Route Weather Data Regional Weather Data Local Weather Data To the Forecasts and Observations / NOTAM section
Request Generated 04/25/2014 at 01:14:49 UTC . Weather information available at that time is displayed.

METAR/TAF

MONTREAL/ST-HUBERT/QC    (show WxCam)

METAR CYHU 250100Z AUTO 33007KT 9SM CLR 08/M04 A2999 RMK SLP158=
METAR CYHU 250000Z AUTO 34010G15KT 9SM CLR 09/M04 A2997 RMK MAX WND
32019KT AT 2311Z SLP150=
METAR CYHU 242300Z AUTO 35010G18KT 9SM CLR 11/M04 A2995 RMK MAX WND
32021KT AT 2246Z SLP141=

TAF CYHU 242338Z 2500/2524 34012KT P6SM FEW040
BECMG 2503/2505 33007KT
FM251800 VRB03KT P6SM BKN140
BECMG 2522/2524 07007KT
RMK FCST BASED ON AUTO OBS. NXT FCST BY 250600Z=
Your time UTC time
Weather data provided by Environment Canada and NAV CANADA